createdAt,value
2022-12-18T00:00:36.358Z,20
2022-12-18T00:02:48.249Z,14
2022-12-18T00:05:00.140Z,15
2022-12-18T00:07:12.029Z,12
2022-12-18T00:09:23.920Z,17
2022-12-18T00:11:35.810Z,17
2022-12-18T00:13:47.700Z,15
2022-12-18T00:15:59.590Z,18
2022-12-18T00:18:11.480Z,14
2022-12-18T00:20:23.371Z,15
2022-12-18T00:22:35.261Z,21
2022-12-18T00:24:47.150Z,17
2022-12-18T00:26:59.040Z,18
2022-12-18T00:29:10.931Z,18
2022-12-18T00:31:22.821Z,13
2022-12-18T00:33:34.711Z,21
2022-12-18T00:35:46.601Z,23
2022-12-18T00:37:58.491Z,20
2022-12-18T00:40:10.380Z,18
2022-12-18T00:42:22.270Z,20
2022-12-18T00:46:29.666Z,24
2022-12-18T00:48:41.556Z,23
2022-12-18T00:50:53.447Z,24
2022-12-18T00:53:05.336Z,21
2022-12-18T00:55:17.226Z,19
2022-12-18T00:57:29.116Z,21
2022-12-18T00:59:41.007Z,14
2022-12-18T01:01:52.897Z,15
2022-12-18T01:04:04.787Z,28
2022-12-18T01:06:16.677Z,28
2022-12-18T01:08:28.566Z,23
2022-12-18T01:10:40.456Z,30
2022-12-18T01:12:52.346Z,17
2022-12-18T01:15:04.236Z,23
2022-12-18T01:17:16.126Z,26
2022-12-18T01:19:28.015Z,26
2022-12-18T01:21:39.906Z,18
2022-12-18T01:23:51.797Z,20
2022-12-18T01:26:03.687Z,19
2022-12-18T01:28:15.577Z,19
2022-12-18T01:30:27.469Z,19
2022-12-18T01:32:39.358Z,15
2022-12-18T01:34:51.248Z,17
2022-12-18T01:37:03.137Z,17
2022-12-18T01:39:15.027Z,26
2022-12-18T01:41:26.917Z,24
2022-12-18T01:43:38.807Z,20
2022-12-18T01:47:46.203Z,17
2022-12-18T01:49:58.094Z,12
2022-12-18T01:52:09.985Z,14
2022-12-18T01:54:21.875Z,9
2022-12-18T01:56:33.767Z,9
2022-12-18T01:58:45.656Z,12
2022-12-18T02:00:57.547Z,11
2022-12-18T02:03:09.437Z,11
2022-12-18T02:05:21.326Z,10
2022-12-18T02:07:33.216Z,13
2022-12-18T02:09:45.106Z,11
2022-12-18T02:11:56.996Z,10
2022-12-18T02:14:08.886Z,12
2022-12-18T02:16:20.777Z,12
2022-12-18T02:18:32.667Z,10
2022-12-18T02:20:44.557Z,8
2022-12-18T02:22:56.447Z,12
2022-12-18T02:25:08.336Z,9
2022-12-18T02:27:20.227Z,10
2022-12-18T02:29:32.117Z,12
2022-12-18T02:31:44.008Z,15
2022-12-18T02:33:55.897Z,11
2022-12-18T02:36:07.787Z,13
2022-12-18T02:38:19.677Z,14
2022-12-18T02:40:31.567Z,14
2022-12-18T02:42:43.457Z,18
2022-12-18T02:44:55.346Z,15
2022-12-18T02:47:07.236Z,13
2022-12-18T02:49:19.126Z,15
2022-12-18T02:51:31.016Z,13
2022-12-18T02:53:42.905Z,12
2022-12-18T02:55:54.795Z,13
2022-12-18T02:58:06.685Z,14
2022-12-18T03:00:18.575Z,12
2022-12-18T03:02:30.465Z,14
2022-12-18T03:04:42.354Z,10
2022-12-18T03:06:54.244Z,13
2022-12-18T03:09:06.134Z,12
2022-12-18T03:11:18.024Z,10
2022-12-18T03:13:29.914Z,12
2022-12-18T03:15:41.805Z,11
2022-12-18T03:17:53.695Z,9
2022-12-18T03:20:05.586Z,7
2022-12-18T03:22:17.477Z,8
2022-12-18T03:24:29.367Z,5
2022-12-18T03:26:41.258Z,8
2022-12-18T03:28:53.148Z,6
2022-12-18T03:31:05.038Z,8
2022-12-18T03:33:16.927Z,10
2022-12-18T03:35:28.817Z,12
2022-12-18T03:37:40.708Z,13
2022-12-18T03:39:52.599Z,11
2022-12-18T03:42:04.488Z,9
2022-12-18T03:44:16.379Z,10
2022-12-18T03:46:28.270Z,12
2022-12-18T03:50:35.667Z,11
2022-12-18T03:52:47.557Z,11
2022-12-18T03:54:59.447Z,13
2022-12-18T03:57:11.338Z,13
2022-12-18T03:59:23.227Z,11
2022-12-18T04:01:35.118Z,11
2022-12-18T04:03:47.008Z,12
2022-12-18T04:05:58.898Z,12
2022-12-18T04:08:10.788Z,10
2022-12-18T04:10:22.677Z,17
2022-12-18T04:12:34.567Z,9
2022-12-18T04:14:46.457Z,10
2022-12-18T04:16:58.347Z,12
2022-12-18T04:19:10.237Z,11
2022-12-18T04:21:22.128Z,12
2022-12-18T04:23:34.018Z,10
2022-12-18T04:25:45.908Z,11
2022-12-18T04:27:57.797Z,10
2022-12-18T04:30:09.687Z,9
2022-12-18T04:32:21.577Z,9
2022-12-18T04:34:33.468Z,8
2022-12-18T04:36:45.358Z,11
2022-12-18T04:38:57.248Z,7
2022-12-18T04:41:09.139Z,7
2022-12-18T04:45:16.536Z,6
2022-12-18T04:47:28.425Z,14
2022-12-18T04:49:40.315Z,9
2022-12-18T04:53:47.711Z,11
2022-12-18T04:55:59.600Z,13
2022-12-18T04:58:11.490Z,15
2022-12-18T05:00:23.380Z,11
2022-12-18T05:02:35.270Z,10
2022-12-18T05:04:47.159Z,12
2022-12-18T05:06:59.049Z,11
2022-12-18T05:09:10.940Z,10
2022-12-18T05:11:22.831Z,11
2022-12-18T05:13:34.722Z,8
2022-12-18T05:15:46.612Z,11
2022-12-18T05:17:58.502Z,9
2022-12-18T05:20:10.392Z,11
2022-12-18T05:22:22.282Z,14
2022-12-18T05:24:34.171Z,10
2022-12-18T05:26:46.061Z,12
2022-12-18T05:28:57.951Z,9
2022-12-18T05:31:09.841Z,9
2022-12-18T05:33:21.730Z,9
2022-12-18T05:35:33.620Z,7
2022-12-18T05:37:45.510Z,10
2022-12-18T05:39:57.400Z,11
2022-12-18T05:42:09.290Z,12
2022-12-18T05:44:21.181Z,13
2022-12-18T05:46:33.071Z,12
2022-12-18T05:48:44.961Z,15
2022-12-18T05:52:52.357Z,12
2022-12-18T05:55:04.246Z,15
2022-12-18T05:57:16.137Z,14
2022-12-18T05:59:28.028Z,10
2022-12-18T06:01:39.918Z,11
2022-12-18T06:03:51.807Z,10
2022-12-18T06:06:03.697Z,13
2022-12-18T06:08:15.587Z,9
2022-12-18T06:10:27.477Z,7
2022-12-18T06:12:39.367Z,5
2022-12-18T06:14:51.256Z,6
2022-12-18T06:17:03.146Z,4
2022-12-18T06:19:15.036Z,5
2022-12-18T06:21:26.926Z,6
2022-12-18T06:23:38.815Z,5
2022-12-18T06:25:50.705Z,8
2022-12-18T06:28:02.596Z,8
2022-12-18T06:30:14.487Z,9
2022-12-18T06:32:26.377Z,11
2022-12-18T06:34:38.266Z,13
2022-12-18T06:36:50.156Z,13
2022-12-18T06:39:02.047Z,12
2022-12-18T06:41:13.936Z,15
2022-12-18T06:43:25.826Z,17
2022-12-18T06:45:37.715Z,15
2022-12-18T06:47:49.606Z,15
2022-12-18T06:50:01.497Z,11
2022-12-18T06:52:13.387Z,13
2022-12-18T06:54:25.277Z,10
2022-12-18T06:56:37.166Z,11
2022-12-18T06:58:49.056Z,10
2022-12-18T07:01:00.946Z,11
2022-12-18T07:03:12.836Z,14
2022-12-18T07:05:24.727Z,11
2022-12-18T07:07:36.618Z,9
2022-12-18T07:09:48.507Z,10
2022-12-18T07:12:00.398Z,10
2022-12-18T07:14:12.289Z,11
2022-12-18T07:16:24.180Z,12
2022-12-18T07:18:36.071Z,12
2022-12-18T07:20:47.960Z,11
2022-12-18T07:22:59.850Z,11
2022-12-18T07:25:11.741Z,16
2022-12-18T07:27:23.631Z,13
2022-12-18T07:29:35.521Z,13
2022-12-18T07:31:47.412Z,12
2022-12-18T07:33:59.301Z,13
2022-12-18T07:36:11.191Z,18
2022-12-18T07:38:23.082Z,13
2022-12-18T07:40:34.973Z,11
2022-12-18T07:42:46.864Z,11
2022-12-18T07:44:58.755Z,13
2022-12-18T07:47:10.646Z,13
2022-12-18T07:49:22.536Z,16
2022-12-18T07:51:34.426Z,12
2022-12-18T07:53:46.316Z,15
2022-12-18T07:55:58.206Z,10
2022-12-18T07:58:10.096Z,8
2022-12-18T08:00:21.986Z,7
2022-12-18T08:02:33.876Z,8
2022-12-18T08:04:45.767Z,8
2022-12-18T08:06:57.657Z,13
2022-12-18T08:09:09.547Z,18
2022-12-18T08:11:21.437Z,14
2022-12-18T08:13:33.328Z,17
2022-12-18T08:15:45.219Z,17
2022-12-18T08:17:57.108Z,16
2022-12-18T08:20:08.998Z,15
2022-12-18T08:22:20.889Z,16
2022-12-18T08:24:32.779Z,15
2022-12-18T08:26:44.669Z,18
2022-12-18T08:28:56.559Z,16
2022-12-18T08:31:08.450Z,14
2022-12-18T08:33:20.340Z,12
2022-12-18T08:35:32.229Z,17
2022-12-18T08:37:44.119Z,15
2022-12-18T08:39:56.010Z,15
2022-12-18T08:42:07.901Z,17
2022-12-18T08:44:19.791Z,18
2022-12-18T08:46:31.681Z,21
2022-12-18T08:48:43.572Z,19
2022-12-18T08:50:55.462Z,16
2022-12-18T08:53:07.353Z,15
2022-12-18T08:55:19.243Z,15
2022-12-18T08:57:31.134Z,11
2022-12-18T08:59:43.025Z,15
2022-12-18T09:01:54.916Z,18
2022-12-18T09:04:06.806Z,17
2022-12-18T09:06:18.697Z,18
2022-12-18T09:08:30.588Z,14
2022-12-18T09:10:42.479Z,13
2022-12-18T09:12:54.370Z,11
2022-12-18T09:15:06.259Z,13
2022-12-18T09:17:18.150Z,12
2022-12-18T09:19:30.041Z,11
2022-12-18T09:21:41.931Z,12
2022-12-18T09:23:53.821Z,9
2022-12-18T09:26:05.712Z,11
2022-12-18T09:28:17.602Z,16
2022-12-18T09:30:29.493Z,11
2022-12-18T09:32:41.383Z,22
2022-12-18T09:34:53.274Z,13
2022-12-18T09:37:05.164Z,14
2022-12-18T09:39:17.055Z,13
2022-12-18T09:41:28.946Z,13
2022-12-18T09:43:40.837Z,13
2022-12-18T09:45:52.726Z,13
2022-12-18T09:48:04.617Z,17
2022-12-18T09:50:16.508Z,13
2022-12-18T09:52:28.399Z,15
2022-12-18T09:54:40.289Z,7
2022-12-18T09:56:52.180Z,9
2022-12-18T09:59:04.070Z,11
2022-12-18T10:01:15.961Z,13
2022-12-18T10:03:27.851Z,19
2022-12-18T10:05:39.742Z,11
2022-12-18T10:07:51.632Z,12
2022-12-18T10:10:03.522Z,10
2022-12-18T10:12:15.413Z,13
2022-12-18T10:14:27.304Z,13
2022-12-18T10:16:39.194Z,13
2022-12-18T10:18:51.084Z,13
2022-12-18T10:21:02.974Z,12
2022-12-18T10:23:14.865Z,13
2022-12-18T10:25:26.756Z,14
2022-12-18T10:27:38.646Z,15
2022-12-18T10:29:50.537Z,11
2022-12-18T10:32:02.428Z,17
2022-12-18T10:34:14.319Z,14
2022-12-18T10:36:26.210Z,16
2022-12-18T10:38:38.100Z,13
2022-12-18T10:40:49.991Z,19
2022-12-18T10:43:01.881Z,20
2022-12-18T10:45:13.772Z,19
2022-12-18T10:47:25.662Z,17
2022-12-18T10:49:37.553Z,18
2022-12-18T10:51:49.444Z,18
2022-12-18T10:54:01.334Z,16
2022-12-18T10:56:13.224Z,15
2022-12-18T10:58:25.114Z,12
2022-12-18T11:00:37.004Z,12
2022-12-18T11:02:48.894Z,12
2022-12-18T11:05:00.785Z,8
2022-12-18T11:07:12.676Z,19
2022-12-18T11:09:24.566Z,15
2022-12-18T11:11:36.456Z,12
2022-12-18T11:13:48.346Z,16
2022-12-18T11:16:00.237Z,15
2022-12-18T11:18:12.128Z,23
2022-12-18T11:20:24.018Z,16
2022-12-18T11:22:35.909Z,24
2022-12-18T11:24:47.800Z,29
2022-12-18T11:26:59.691Z,25
2022-12-18T11:29:11.582Z,32
2022-12-18T11:31:23.473Z,32
2022-12-18T11:33:35.364Z,29
2022-12-18T11:35:47.254Z,25
2022-12-18T11:37:59.144Z,24
2022-12-18T11:40:11.034Z,29
2022-12-18T11:42:22.924Z,27
2022-12-18T11:44:34.814Z,39
2022-12-18T11:46:46.704Z,36
2022-12-18T11:48:58.594Z,28
2022-12-18T11:51:10.484Z,27
2022-12-18T11:53:22.375Z,31
2022-12-18T11:55:34.266Z,33
2022-12-18T11:57:46.157Z,30
2022-12-18T12:01:53.555Z,24
2022-12-18T12:06:00.952Z,28
2022-12-18T12:08:12.842Z,29
2022-12-18T12:10:24.733Z,28
2022-12-18T12:12:36.624Z,23
2022-12-18T12:14:48.514Z,24
2022-12-18T12:17:00.404Z,25
2022-12-18T12:19:12.294Z,20
2022-12-18T12:21:24.185Z,25
2022-12-18T12:23:36.075Z,30
2022-12-18T12:25:47.966Z,22
2022-12-18T12:27:59.856Z,24
2022-12-18T12:30:11.747Z,17
2022-12-18T12:32:23.638Z,18
2022-12-18T12:34:35.529Z,15
2022-12-18T12:36:47.419Z,16
2022-12-18T12:38:59.309Z,17
2022-12-18T12:41:11.200Z,16
2022-12-18T12:43:23.090Z,13
2022-12-18T12:45:34.981Z,12
2022-12-18T12:47:46.872Z,20
2022-12-18T12:49:58.763Z,20
2022-12-18T12:52:10.654Z,23
2022-12-18T12:54:22.545Z,23
2022-12-18T12:56:34.436Z,18
2022-12-18T12:58:46.326Z,24
2022-12-18T13:00:58.216Z,27
2022-12-18T13:03:10.107Z,34
2022-12-18T13:05:21.998Z,27
2022-12-18T13:07:33.889Z,23
2022-12-18T13:09:45.780Z,17
2022-12-18T13:11:57.670Z,23
2022-12-18T13:14:09.560Z,27
2022-12-18T13:16:21.450Z,30
2022-12-18T13:18:33.341Z,22
2022-12-18T13:20:45.232Z,26
2022-12-18T13:22:57.123Z,24
2022-12-18T13:25:09.013Z,38
2022-12-18T13:27:20.903Z,33
2022-12-18T13:29:32.794Z,43
2022-12-18T13:31:44.684Z,37
2022-12-18T13:33:56.574Z,36
2022-12-18T13:36:08.465Z,29
2022-12-18T13:38:20.356Z,27
2022-12-18T13:40:32.247Z,33
2022-12-18T13:42:44.137Z,26
2022-12-18T13:44:56.028Z,33
2022-12-18T13:47:07.919Z,27
2022-12-18T13:49:19.809Z,21
2022-12-18T13:51:31.700Z,22
2022-12-18T13:53:43.590Z,24
2022-12-18T13:55:55.481Z,20
2022-12-18T13:58:07.371Z,17
2022-12-18T14:00:19.262Z,14
2022-12-18T14:02:31.153Z,22
2022-12-18T14:04:43.044Z,21
2022-12-18T14:06:54.935Z,18
2022-12-18T14:09:06.825Z,25
2022-12-18T14:11:18.716Z,27
2022-12-18T14:13:30.608Z,25
2022-12-18T14:15:42.498Z,28
2022-12-18T14:17:54.389Z,31
2022-12-18T14:20:06.280Z,30
2022-12-18T14:22:18.170Z,26
2022-12-18T14:24:30.061Z,18
2022-12-18T14:26:41.951Z,14
2022-12-18T14:28:53.841Z,25
2022-12-18T14:31:05.732Z,22
2022-12-18T14:33:17.623Z,19
2022-12-18T14:35:29.513Z,16
2022-12-18T14:37:41.403Z,21
2022-12-18T14:39:53.293Z,20
2022-12-18T14:42:05.184Z,22
2022-12-18T14:44:17.075Z,33
2022-12-18T14:46:28.967Z,23
2022-12-18T14:48:40.857Z,13
2022-12-18T14:50:52.747Z,15
2022-12-18T14:55:16.528Z,15
2022-12-18T14:57:28.418Z,15
2022-12-18T14:59:40.309Z,18
2022-12-18T15:01:52.199Z,17
2022-12-18T15:04:04.089Z,18
2022-12-18T15:06:15.979Z,10
2022-12-18T15:08:27.870Z,19
2022-12-18T15:10:39.761Z,24
2022-12-18T15:12:51.651Z,20
2022-12-18T15:15:03.541Z,20
2022-12-18T15:17:15.432Z,28
2022-12-18T15:19:27.322Z,22
2022-12-18T15:21:39.212Z,19
2022-12-18T15:23:51.103Z,21
2022-12-18T15:26:02.994Z,21
2022-12-18T15:28:14.887Z,20
2022-12-18T15:30:26.776Z,18
2022-12-18T15:32:38.666Z,19
2022-12-18T15:34:50.557Z,21
2022-12-18T15:37:02.448Z,16
2022-12-18T15:39:14.339Z,16
2022-12-18T15:41:26.229Z,20
2022-12-18T15:43:38.119Z,16
2022-12-18T15:45:50.009Z,23
2022-12-18T15:48:01.899Z,29
2022-12-18T15:50:13.790Z,31
2022-12-18T15:52:25.680Z,39
2022-12-18T15:54:37.570Z,34
2022-12-18T15:56:49.461Z,27
2022-12-18T15:59:01.351Z,18
2022-12-18T16:01:13.241Z,23
2022-12-18T16:03:25.131Z,24
2022-12-18T16:05:37.022Z,21
2022-12-18T16:07:48.912Z,23
2022-12-18T16:10:00.802Z,17
2022-12-18T16:12:12.693Z,18
2022-12-18T16:14:24.583Z,17
2022-12-18T16:16:36.474Z,20
2022-12-18T16:18:48.366Z,23
2022-12-18T16:21:00.256Z,21
2022-12-18T16:23:12.147Z,26
2022-12-18T16:25:24.036Z,19
2022-12-18T16:27:35.926Z,19
2022-12-18T16:29:47.816Z,22
2022-12-18T16:31:59.707Z,22
2022-12-18T16:34:11.598Z,25
2022-12-18T16:36:23.489Z,22
2022-12-18T16:38:35.380Z,23
2022-12-18T16:40:47.270Z,16
2022-12-18T16:42:59.160Z,17
2022-12-18T16:45:11.051Z,17
2022-12-18T16:47:22.941Z,22
2022-12-18T16:49:34.832Z,22
2022-12-18T16:51:46.722Z,18
2022-12-18T16:53:58.611Z,23
2022-12-18T16:56:10.502Z,22
2022-12-18T16:58:22.392Z,34
2022-12-18T17:00:34.284Z,26
2022-12-18T17:02:46.173Z,25
2022-12-18T17:04:58.063Z,19
2022-12-18T17:09:05.461Z,19
2022-12-18T17:11:17.351Z,19
2022-12-18T17:13:29.241Z,24
2022-12-18T17:15:41.132Z,20
2022-12-18T17:17:53.022Z,12
2022-12-18T17:20:04.913Z,13
2022-12-18T17:22:16.803Z,18
2022-12-18T17:24:28.692Z,20
2022-12-18T17:26:40.583Z,10
2022-12-18T17:28:52.474Z,12
2022-12-18T17:31:04.365Z,14
2022-12-18T17:33:16.256Z,12
2022-12-18T17:35:28.147Z,13
2022-12-18T17:37:40.037Z,9
2022-12-18T17:39:51.928Z,10
2022-12-18T17:42:03.819Z,9
2022-12-18T17:44:15.710Z,11
2022-12-18T17:46:27.600Z,16
2022-12-18T17:48:39.491Z,14
2022-12-18T17:50:51.382Z,17
2022-12-18T17:53:03.272Z,19
2022-12-18T17:55:15.162Z,16
2022-12-18T17:57:27.051Z,24
2022-12-18T17:59:38.941Z,21
2022-12-18T18:01:50.831Z,33
2022-12-18T18:04:02.721Z,22
2022-12-18T18:06:14.611Z,22
2022-12-18T18:10:22.007Z,24
2022-12-18T18:12:33.898Z,23
2022-12-18T18:14:45.789Z,24
2022-12-18T18:16:57.679Z,25
2022-12-18T18:19:09.569Z,24
2022-12-18T18:21:21.459Z,24
2022-12-18T18:23:33.349Z,24
2022-12-18T18:25:45.240Z,29
2022-12-18T18:27:57.130Z,29
2022-12-18T18:30:09.020Z,28
2022-12-18T18:32:20.910Z,27
2022-12-18T18:34:32.800Z,25
2022-12-18T18:36:44.690Z,30
2022-12-18T18:38:56.581Z,28
2022-12-18T18:41:08.472Z,31
2022-12-18T18:43:20.362Z,26
2022-12-18T18:45:32.252Z,33
2022-12-18T18:47:44.142Z,28
2022-12-18T18:49:56.033Z,23
2022-12-18T18:52:07.924Z,25
2022-12-18T18:54:19.814Z,24
2022-12-18T18:56:31.703Z,29
2022-12-18T18:58:43.594Z,22
2022-12-18T19:00:55.484Z,24
2022-12-18T19:03:07.375Z,27
2022-12-18T19:05:19.266Z,26
2022-12-18T19:07:31.157Z,22
2022-12-18T19:09:43.047Z,27
2022-12-18T19:11:54.937Z,23
2022-12-18T19:14:06.827Z,18
2022-12-18T19:16:18.717Z,24
2022-12-18T19:18:30.607Z,20
2022-12-18T19:20:42.497Z,16
2022-12-18T19:22:54.387Z,22
2022-12-18T19:27:01.785Z,22
2022-12-18T19:29:13.675Z,30
2022-12-18T19:31:25.566Z,22
2022-12-18T19:33:37.456Z,26
2022-12-18T19:35:49.347Z,21
2022-12-18T19:38:01.239Z,23
2022-12-18T19:40:13.129Z,22
2022-12-18T19:42:25.020Z,22
2022-12-18T19:44:36.911Z,20
2022-12-18T19:46:48.801Z,27
2022-12-18T19:49:00.692Z,30
2022-12-18T19:51:12.582Z,21
2022-12-18T19:53:24.472Z,24
2022-12-18T19:55:36.362Z,28
2022-12-18T19:57:48.252Z,19
2022-12-18T20:00:00.142Z,21
2022-12-18T20:02:12.032Z,14
2022-12-18T20:04:23.922Z,16
2022-12-18T20:06:35.812Z,18
2022-12-18T20:08:47.701Z,17
2022-12-18T20:12:55.099Z,31
2022-12-18T20:15:06.989Z,20
2022-12-18T20:17:18.879Z,28
2022-12-18T20:19:30.769Z,21
2022-12-18T20:21:42.660Z,21
2022-12-18T20:23:54.551Z,29
2022-12-18T20:26:06.442Z,30
2022-12-18T20:28:18.333Z,28
2022-12-18T20:30:30.223Z,27
2022-12-18T20:32:42.113Z,17
2022-12-18T20:34:54.003Z,17
2022-12-18T20:37:05.893Z,15
2022-12-18T20:39:17.783Z,21
2022-12-18T20:41:29.673Z,17
2022-12-18T20:43:41.563Z,17
2022-12-18T20:45:53.453Z,21
2022-12-18T20:48:05.343Z,22
2022-12-18T20:50:17.234Z,21
2022-12-18T20:52:29.125Z,23
2022-12-18T20:54:41.015Z,27
2022-12-18T20:56:52.906Z,23
2022-12-18T20:59:04.797Z,23
2022-12-18T21:01:16.687Z,20
2022-12-18T21:03:28.578Z,27
2022-12-18T21:05:40.469Z,24
2022-12-18T21:07:52.360Z,21
2022-12-18T21:10:04.251Z,19
2022-12-18T21:12:16.142Z,23
2022-12-18T21:14:28.032Z,19
2022-12-18T21:16:39.922Z,24
2022-12-18T21:18:51.812Z,28
2022-12-18T21:21:03.702Z,25
2022-12-18T21:23:15.592Z,24
2022-12-18T21:25:27.483Z,28
2022-12-18T21:27:39.374Z,25
2022-12-18T21:29:51.265Z,24
2022-12-18T21:32:03.157Z,30
2022-12-18T21:34:15.046Z,29
2022-12-18T21:36:26.936Z,29
2022-12-18T21:38:38.826Z,28
2022-12-18T21:40:50.716Z,31
2022-12-18T21:43:02.606Z,30
2022-12-18T21:45:14.496Z,30
2022-12-18T21:47:26.385Z,27
2022-12-18T21:49:38.276Z,22
2022-12-18T21:51:50.165Z,26
2022-12-18T21:54:02.055Z,30
2022-12-18T21:56:13.945Z,22
2022-12-18T21:58:25.836Z,26
2022-12-18T22:00:37.725Z,19
2022-12-18T22:02:49.615Z,19
2022-12-18T22:05:01.505Z,19
2022-12-18T22:07:13.395Z,21
2022-12-18T22:09:25.285Z,21
2022-12-18T22:11:37.175Z,18
2022-12-18T22:15:44.571Z,18
2022-12-18T22:17:56.462Z,17
2022-12-18T22:20:08.353Z,16
2022-12-18T22:22:20.243Z,18
2022-12-18T22:24:32.133Z,17
2022-12-18T22:26:44.023Z,14
2022-12-18T22:28:55.913Z,18
2022-12-18T22:31:07.804Z,15
2022-12-18T22:33:19.695Z,13
2022-12-18T22:35:31.585Z,18
2022-12-18T22:37:43.475Z,16
2022-12-18T22:39:55.365Z,18
2022-12-18T22:42:07.255Z,21
2022-12-18T22:44:19.144Z,21
2022-12-18T22:46:31.035Z,18
2022-12-18T22:48:42.924Z,18
2022-12-18T22:50:54.814Z,25
2022-12-18T22:53:06.704Z,24
2022-12-18T22:55:18.594Z,23
2022-12-18T22:57:30.485Z,21
2022-12-18T22:59:42.376Z,19
2022-12-18T23:01:54.266Z,18
2022-12-18T23:04:06.156Z,21
2022-12-18T23:06:18.046Z,17
2022-12-18T23:08:29.936Z,19
2022-12-18T23:10:41.826Z,19
2022-12-18T23:12:53.717Z,16
2022-12-18T23:17:01.114Z,19
2022-12-18T23:19:13.004Z,20
2022-12-18T23:21:24.894Z,21
2022-12-18T23:23:36.784Z,25
2022-12-18T23:25:48.674Z,20
2022-12-18T23:28:00.564Z,18
2022-12-18T23:30:12.454Z,15
2022-12-18T23:32:24.345Z,19
2022-12-18T23:34:36.236Z,11
2022-12-18T23:36:48.126Z,14
2022-12-18T23:39:00.017Z,15
2022-12-18T23:41:11.908Z,19
2022-12-18T23:43:23.798Z,21
2022-12-18T23:45:35.688Z,18
2022-12-18T23:47:47.578Z,14
2022-12-18T23:49:59.468Z,17
2022-12-18T23:52:11.358Z,22
2022-12-18T23:54:23.248Z,16
2022-12-18T23:56:35.139Z,16
2022-12-18T23:58:47.030Z,15
